Terminal Aerodrome Forecast
Issued by NWS Charleston, SC

Home | Current Version | Previous Version | Text Only | Print | Product List | Glossary On
Versions: 1 2 3 4 5 6 7 8 9 10 11 12 13 14 15 16
000
FTUS42 KCHS 231120
TAFSAV
TAF
KSAV 231120Z 2312/2412 05010KT P6SM FEW050
     FM231700 09014G20KT P6SM SCT050
     FM240000 08007KT P6SM SCT050=

USA.gov is the U.S. government's official web portal to all federal, state and local government web resources and services.